createdAt,value
2015-10-22T00:00:10.287Z,73350
2015-10-22T00:00:22.631Z,73347
2015-10-22T00:00:34.959Z,73344
2015-10-22T00:00:47.336Z,73347
2015-10-22T00:00:59.695Z,73347
2015-10-22T00:01:12.023Z,73345
2015-10-22T00:01:24.351Z,73347
2015-10-22T00:01:36.695Z,73352
2015-10-22T00:01:49.008Z,73351
2015-10-22T00:02:01.351Z,73352
2015-10-22T00:02:13.679Z,73351
2015-10-22T00:02:26.008Z,73353
2015-10-22T00:02:38.336Z,73354
2015-10-22T00:02:50.681Z,73350
2015-10-22T00:03:03.041Z,73354
2015-10-22T00:03:15.400Z,73352
2015-10-22T00:03:27.775Z,73347
2015-10-22T00:03:40.103Z,73348
2015-10-22T00:03:52.433Z,73352
2015-10-22T00:04:04.762Z,73355
2015-10-22T00:04:17.105Z,73347
2015-10-22T00:04:29.433Z,73348
2015-10-22T00:04:41.763Z,73359
2015-10-22T00:04:54.091Z,73353
2015-10-22T00:05:06.434Z,73353
2015-10-22T00:05:18.794Z,73355
2015-10-22T00:05:31.153Z,73352
2015-10-22T00:05:43.484Z,73349
2015-10-22T00:05:55.812Z,73355
2015-10-22T00:06:08.141Z,73346
2015-10-22T00:06:20.469Z,73349
2015-10-22T00:06:32.797Z,73350
2015-10-22T00:06:45.142Z,73352
2015-10-22T00:06:57.470Z,73348
2015-10-22T00:07:09.813Z,73352
2015-10-22T00:07:22.173Z,73350
2015-10-22T00:07:34.532Z,73350
2015-10-22T00:07:46.878Z,73350
2015-10-22T00:07:59.222Z,73349
2015-10-22T00:08:11.550Z,73350
2015-10-22T00:08:23.878Z,73349
2015-10-22T00:08:36.222Z,73347
2015-10-22T00:08:48.552Z,73349
2015-10-22T00:09:00.880Z,73352
2015-10-22T00:09:13.224Z,73347
2015-10-22T00:09:25.567Z,73351
2015-10-22T00:09:37.927Z,73351
2015-10-22T00:09:50.273Z,73353
2015-10-22T00:10:02.601Z,73348
2015-10-22T00:10:14.929Z,73353
2015-10-22T00:10:27.241Z,73348
2015-10-22T00:10:39.569Z,73344
2015-10-22T00:10:51.901Z,73355
2015-10-22T00:11:04.229Z,73351
2015-10-22T00:11:16.572Z,73349
2015-10-22T00:11:28.932Z,73350
2015-10-22T00:11:41.151Z,73347
2015-10-22T00:11:53.512Z,73348
2015-10-22T00:12:05.871Z,73349
2015-10-22T00:12:18.215Z,73353
2015-10-22T00:12:30.590Z,73352
2015-10-22T00:12:42.918Z,73356
2015-10-22T00:12:55.249Z,73354
2015-10-22T00:13:07.577Z,73353
2015-10-22T00:13:19.906Z,73344
2015-10-22T00:13:32.234Z,73349
2015-10-22T00:13:44.562Z,73352
2015-10-22T00:13:56.908Z,73350
2015-10-22T00:14:09.267Z,73348
2015-10-22T00:14:21.611Z,73351
2015-10-22T00:14:33.939Z,73356
2015-10-22T00:14:46.270Z,73346
2015-10-22T00:14:58.629Z,73349
2015-10-22T00:15:10.957Z,73354
2015-10-22T00:15:23.301Z,73347
2015-10-22T00:15:35.645Z,73349
2015-10-22T00:15:48.007Z,73350
2015-10-22T00:16:00.351Z,73354
2015-10-22T00:16:12.710Z,73352
2015-10-22T00:16:25.039Z,73351
2015-10-22T00:16:37.382Z,73350
2015-10-22T00:16:49.712Z,73352
2015-10-22T00:17:02.056Z,73346
2015-10-22T00:17:14.384Z,73356
2015-10-22T00:17:26.712Z,73348
2015-10-22T00:17:39.056Z,73344
2015-10-22T00:17:51.403Z,73349
2015-10-22T00:18:03.762Z,73352
2015-10-22T00:18:16.106Z,73349
2015-10-22T00:18:28.450Z,73344
2015-10-22T00:18:40.778Z,73354
2015-10-22T00:18:53.109Z,73350
2015-10-22T00:19:05.437Z,73351
2015-10-22T00:19:17.765Z,73357
2015-10-22T00:19:29.937Z,73345
2015-10-22T00:19:42.265Z,73351
2015-10-22T00:19:54.612Z,73351
2015-10-22T00:20:06.956Z,73348
2015-10-22T00:20:19.315Z,73347
2015-10-22T00:20:31.503Z,73352
2015-10-22T00:20:43.831Z,73346
2015-10-22T00:20:56.177Z,73355
2015-10-22T00:21:08.489Z,73347
2015-10-22T00:21:20.817Z,73352
2015-10-22T00:21:33.177Z,73348
2015-10-22T00:21:45.489Z,73343
2015-10-22T00:21:57.851Z,73353
2015-10-22T00:22:10.180Z,73346
2015-10-22T00:22:22.555Z,73350
2015-10-22T00:22:34.914Z,73351
2015-10-22T00:22:47.273Z,73348
2015-10-22T00:22:59.620Z,73356
2015-10-22T00:23:11.964Z,73345
2015-10-22T00:23:24.292Z,73353
2015-10-22T00:23:36.620Z,73351
2015-10-22T00:23:48.948Z,73345
2015-10-22T00:24:01.310Z,73347
2015-10-22T00:24:13.638Z,73345
2015-10-22T00:24:26.013Z,73352
2015-10-22T00:24:38.341Z,73349
2015-10-22T00:24:50.216Z,73346
2015-10-22T00:25:02.547Z,73347
2015-10-22T00:25:14.844Z,73351
2015-10-22T00:25:27.172Z,73350
2015-10-22T00:25:39.516Z,73350
2015-10-22T00:25:51.859Z,73351
2015-10-22T00:26:04.222Z,73341
2015-10-22T00:26:16.550Z,73353
2015-10-22T00:26:28.862Z,73355
2015-10-22T00:26:41.206Z,73348
2015-10-22T00:26:53.534Z,73352
2015-10-22T00:27:05.880Z,73349
2015-10-22T00:27:18.224Z,73349
2015-10-22T00:27:30.568Z,73353
2015-10-22T00:27:42.943Z,73351
2015-10-22T00:27:55.302Z,73352
2015-10-22T00:28:07.633Z,73344
2015-10-22T00:28:19.961Z,73355
2015-10-22T00:28:32.289Z,73351
2015-10-22T00:28:43.914Z,73346
2015-10-22T00:28:55.539Z,73354
2015-10-22T00:29:07.870Z,73340
2015-10-22T00:29:20.199Z,73350
2015-10-22T00:29:32.542Z,73350
2015-10-22T00:29:44.886Z,73355
2015-10-22T00:29:57.245Z,73350
2015-10-22T00:30:09.623Z,73350
2015-10-22T00:30:21.952Z,73352
2015-10-22T00:30:34.280Z,73355
2015-10-22T00:30:46.623Z,73352
2015-10-22T00:30:58.952Z,73357
2015-10-22T00:31:11.298Z,73350
2015-10-22T00:31:23.611Z,73350
2015-10-22T00:31:35.939Z,73352
2015-10-22T00:31:48.283Z,73350
2015-10-22T00:32:00.644Z,73351
2015-10-22T00:32:12.988Z,73348
2015-10-22T00:32:25.300Z,73356
2015-10-22T00:32:37.628Z,73345
2015-10-22T00:32:49.957Z,73351
2015-10-22T00:33:02.288Z,73353
2015-10-22T00:33:14.631Z,73351
2015-10-22T00:33:26.975Z,73345
2015-10-22T00:33:39.335Z,73348
2015-10-22T00:33:51.694Z,73355
2015-10-22T00:34:04.072Z,73351
2015-10-22T00:34:15.681Z,73352
2015-10-22T00:34:28.009Z,73345
2015-10-22T00:34:40.338Z,73355
2015-10-22T00:34:52.666Z,73344
2015-10-22T00:35:05.012Z,73347
2015-10-22T00:35:17.325Z,73349
2015-10-22T00:35:29.669Z,73349
2015-10-22T00:35:42.012Z,73350
2015-10-22T00:35:54.356Z,73351
2015-10-22T00:36:06.577Z,73343
2015-10-22T00:36:18.936Z,73347
2015-10-22T00:36:31.280Z,73340
2015-10-22T00:36:43.608Z,73346
2015-10-22T00:36:55.936Z,73352
2015-10-22T00:37:08.267Z,73352
2015-10-22T00:37:20.596Z,73345
2015-10-22T00:37:32.924Z,73348
2015-10-22T00:37:45.252Z,73347
2015-10-22T00:37:57.596Z,73349
2015-10-22T00:38:09.941Z,73346
2015-10-22T00:38:22.301Z,73345
2015-10-22T00:38:34.629Z,73338
2015-10-22T00:38:46.957Z,73353
2015-10-22T00:38:59.301Z,73340
2015-10-22T00:39:11.632Z,73351
2015-10-22T00:39:23.960Z,73343
2015-10-22T00:39:36.304Z,73349
2015-10-22T00:39:48.647Z,73341
2015-10-22T00:40:01.007Z,73349
2015-10-22T00:40:13.338Z,73345
2015-10-22T00:40:25.666Z,73341
2015-10-22T00:40:37.994Z,73343
2015-10-22T00:40:50.322Z,73347
2015-10-22T00:41:02.682Z,73346
2015-10-22T00:41:15.027Z,73347
2015-10-22T00:41:27.387Z,73343
2015-10-22T00:41:39.746Z,73347
2015-10-22T00:41:52.106Z,73349
2015-10-22T00:42:04.309Z,73341
2015-10-22T00:42:16.641Z,73346
2015-10-22T00:42:28.969Z,73346
2015-10-22T00:42:41.297Z,73345
2015-10-22T00:42:53.641Z,73345
2015-10-22T00:43:05.969Z,73353
2015-10-22T00:43:18.283Z,73342
2015-10-22T00:43:30.643Z,73350
2015-10-22T00:43:42.987Z,73343
2015-10-22T00:43:55.330Z,73351
2015-10-22T00:44:07.690Z,73346
2015-10-22T00:44:19.349Z,73341
2015-10-22T00:44:31.708Z,73348
2015-10-22T00:44:44.036Z,73347
2015-10-22T00:44:56.365Z,73342
2015-10-22T00:45:08.693Z,73345
2015-10-22T00:45:21.024Z,73343
2015-10-22T00:45:33.352Z,73343
2015-10-22T00:45:45.680Z,73344
2015-10-22T00:45:58.039Z,73334
2015-10-22T00:46:10.370Z,73346
2015-10-22T00:46:22.729Z,73343
2015-10-22T00:46:35.088Z,73339
2015-10-22T00:46:47.416Z,73346
2015-10-22T00:46:59.041Z,73339
2015-10-22T00:47:11.373Z,73341
2015-10-22T00:47:23.529Z,73339
2015-10-22T00:47:35.873Z,73343
2015-10-22T00:47:48.201Z,73347
2015-10-22T00:48:00.560Z,73339
2015-10-22T00:48:12.938Z,73344
2015-10-22T00:48:25.297Z,73339
2015-10-22T00:48:37.657Z,73341
2015-10-22T00:48:50.001Z,73343
2015-10-22T00:49:01.610Z,73342
2015-10-22T00:49:13.941Z,73341
2015-10-22T00:49:26.285Z,73348
2015-10-22T00:49:38.597Z,73339
2015-10-22T00:49:50.925Z,73344
2015-10-22T00:50:02.566Z,73337
2015-10-22T00:50:14.943Z,73343
2015-10-22T00:50:27.318Z,73341
2015-10-22T00:50:39.662Z,73342
2015-10-22T00:50:51.974Z,73343
2015-10-22T00:51:04.318Z,73343
2015-10-22T00:51:16.634Z,73338
2015-10-22T00:51:28.962Z,73338
2015-10-22T00:51:41.305Z,73341
2015-10-22T00:51:53.477Z,73337
2015-10-22T00:52:05.821Z,73330
2015-10-22T00:52:18.167Z,73338
2015-10-22T00:52:30.557Z,73335
2015-10-22T00:52:42.901Z,73338
2015-10-22T00:52:55.229Z,73338
2015-10-22T00:53:07.557Z,73340
2015-10-22T00:53:19.921Z,73341
2015-10-22T00:53:31.811Z,73333
2015-10-22T00:53:44.140Z,73334
2015-10-22T00:53:56.468Z,73337
2015-10-22T00:54:08.811Z,73335
2015-10-22T00:54:21.142Z,73338
2015-10-22T00:54:33.532Z,73338
2015-10-22T00:54:45.892Z,73344
2015-10-22T00:54:58.267Z,73341
2015-10-22T00:55:10.610Z,73338
2015-10-22T00:55:22.941Z,73333
2015-10-22T00:55:35.270Z,73344
2015-10-22T00:55:47.598Z,73343
2015-10-22T00:55:59.770Z,73342
2015-10-22T00:56:12.098Z,73335
2015-10-22T00:56:24.429Z,73338
2015-10-22T00:56:36.788Z,73343
2015-10-22T00:56:49.116Z,73334
2015-10-22T00:57:01.476Z,73341
2015-10-22T00:57:13.835Z,73335
2015-10-22T00:57:26.196Z,73336
2015-10-22T00:57:38.556Z,73334
2015-10-22T00:57:50.915Z,73337
2015-10-22T00:58:03.243Z,73338
2015-10-22T00:58:15.603Z,73339
2015-10-22T00:58:27.934Z,73336
2015-10-22T00:58:40.262Z,73336
2015-10-22T00:58:52.606Z,73330
2015-10-22T00:59:04.949Z,73331
2015-10-22T00:59:17.278Z,73338
2015-10-22T00:59:29.640Z,73333
2015-10-22T00:59:41.999Z,73339
2015-10-22T00:59:54.327Z,73334
2015-10-22T01:00:06.640Z,73331
2015-10-22T01:00:18.952Z,73333
2015-10-22T01:00:31.268Z,73343
2015-10-22T01:00:43.580Z,73337
2015-10-22T01:00:55.909Z,73334
2015-10-22T01:01:08.268Z,73340
2015-10-22T01:01:20.627Z,73341
2015-10-22T01:01:32.961Z,73334
2015-10-22T01:01:45.289Z,73335
2015-10-22T01:01:57.618Z,73342
2015-10-22T01:02:09.946Z,73335
2015-10-22T01:02:22.324Z,73344
2015-10-22T01:02:34.652Z,73341
2015-10-22T01:02:47.011Z,73338
2015-10-22T01:02:59.339Z,73341
2015-10-22T01:03:11.667Z,73341
2015-10-22T01:03:23.998Z,73335
2015-10-22T01:03:36.326Z,73338
2015-10-22T01:03:48.654Z,73334
2015-10-22T01:04:00.998Z,73332
2015-10-22T01:04:13.341Z,73334
2015-10-22T01:04:25.720Z,73335
2015-10-22T01:04:38.064Z,73339
2015-10-22T01:04:50.392Z,73334
2015-10-22T01:05:02.720Z,73341
2015-10-22T01:05:15.064Z,73334
2015-10-22T01:05:27.394Z,73336
2015-10-22T01:05:39.785Z,73332
2015-10-22T01:05:52.129Z,73334
2015-10-22T01:06:04.504Z,73326
2015-10-22T01:06:16.863Z,73336
2015-10-22T01:06:28.537Z,73337
2015-10-22T01:06:40.896Z,73332
2015-10-22T01:06:53.224Z,73337
2015-10-22T01:07:05.552Z,73333
2015-10-22T01:07:17.881Z,73337
2015-10-22T01:07:30.056Z,73332
2015-10-22T01:07:42.400Z,73328
2015-10-22T01:07:54.728Z,73334
2015-10-22T01:08:07.072Z,73333
2015-10-22T01:08:19.416Z,73330
2015-10-22T01:08:31.777Z,73328
2015-10-22T01:08:44.152Z,73329
2015-10-22T01:08:55.777Z,73325
2015-10-22T01:09:08.105Z,73334
2015-10-22T01:09:20.433Z,73334
2015-10-22T01:09:32.765Z,73332
2015-10-22T01:09:45.093Z,73334
2015-10-22T01:09:57.421Z,73330
2015-10-22T01:10:09.733Z,73327
2015-10-22T01:10:22.061Z,73327
2015-10-22T01:10:34.252Z,73330
2015-10-22T01:10:46.611Z,73333
2015-10-22T01:10:58.971Z,73330
2015-10-22T01:11:11.314Z,73330
2015-10-22T01:11:23.643Z,73332
2015-10-22T01:11:35.974Z,73329
2015-10-22T01:11:48.302Z,73331
2015-10-22T01:12:00.646Z,73335
2015-10-22T01:12:12.974Z,73324
2015-10-22T01:12:25.302Z,73332
2015-10-22T01:12:37.648Z,73330
2015-10-22T01:12:50.007Z,73332
2015-10-22T01:13:02.398Z,73331
2015-10-22T01:13:14.773Z,73333
2015-10-22T01:13:27.148Z,73328
2015-10-22T01:13:39.510Z,73329
2015-10-22T01:13:51.838Z,73329
2015-10-22T01:14:04.166Z,73334
2015-10-22T01:14:16.494Z,73333
2015-10-22T01:14:28.666Z,73332
2015-10-22T01:14:41.012Z,73329
2015-10-22T01:14:53.356Z,73328
2015-10-22T01:15:05.715Z,73328
2015-10-22T01:15:18.043Z,73326
2015-10-22T01:15:30.371Z,73327
2015-10-22T01:15:42.702Z,73330
2015-10-22T01:15:55.046Z,73326
2015-10-22T01:16:07.390Z,73326
2015-10-22T01:16:19.718Z,73329
2015-10-22T01:16:32.093Z,73329
2015-10-22T01:16:44.455Z,73327
2015-10-22T01:16:56.799Z,73330
2015-10-22T01:17:09.143Z,73324
2015-10-22T01:17:21.471Z,73327
2015-10-22T01:17:33.801Z,73324
2015-10-22T01:17:46.129Z,73332
2015-10-22T01:17:58.473Z,73322
2015-10-22T01:18:10.786Z,73325
2015-10-22T01:18:23.114Z,73328
2015-10-22T01:18:35.460Z,73323
2015-10-22T01:18:47.804Z,73328
2015-10-22T01:19:00.164Z,73330
2015-10-22T01:19:12.523Z,73329
2015-10-22T01:19:24.851Z,73325
2015-10-22T01:19:37.182Z,73326
2015-10-22T01:19:49.510Z,73320
2015-10-22T01:20:01.838Z,73326
2015-10-22T01:20:14.167Z,73329
2015-10-22T01:20:26.510Z,73325
2015-10-22T01:20:38.857Z,73324
2015-10-22T01:20:51.201Z,73324
2015-10-22T01:21:03.545Z,73328
2015-10-22T01:21:15.920Z,73321
2015-10-22T01:21:27.529Z,73327
2015-10-22T01:21:39.860Z,73333
2015-10-22T01:21:52.188Z,73328
2015-10-22T01:22:04.516Z,73328
2015-10-22T01:22:16.844Z,73329
2015-10-22T01:22:29.188Z,73333
2015-10-22T01:22:41.534Z,73326
2015-10-22T01:22:53.893Z,73326
2015-10-22T01:23:06.221Z,73321
2015-10-22T01:23:18.550Z,73332
2015-10-22T01:23:30.862Z,73331
2015-10-22T01:23:43.193Z,73327
2015-10-22T01:23:55.537Z,73328
2015-10-22T01:24:07.865Z,73326
2015-10-22T01:24:20.193Z,73322
2015-10-22T01:24:32.553Z,73326
2015-10-22T01:24:44.899Z,73330
2015-10-22T01:24:57.118Z,73329
2015-10-22T01:25:09.477Z,73322
2015-10-22T01:25:21.806Z,73330
2015-10-22T01:25:34.134Z,73330
2015-10-22T01:25:46.464Z,73328
2015-10-22T01:25:58.776Z,73325
2015-10-22T01:26:11.120Z,73325
2015-10-22T01:26:23.464Z,73329
2015-10-22T01:26:35.792Z,73321
2015-10-22T01:26:48.139Z,73326
2015-10-22T01:27:00.482Z,73335
2015-10-22T01:27:12.842Z,73329
2015-10-22T01:27:25.201Z,73331
2015-10-22T01:27:37.529Z,73329
2015-10-22T01:27:49.876Z,73329
2015-10-22T01:28:02.204Z,73328
2015-10-22T01:28:14.532Z,73322
2015-10-22T01:28:26.860Z,73329
2015-10-22T01:28:39.191Z,73332
2015-10-22T01:28:51.519Z,73322
2015-10-22T01:29:03.862Z,73329
2015-10-22T01:29:16.222Z,73328
2015-10-22T01:29:28.550Z,73331
2015-10-22T01:29:40.881Z,73329
2015-10-22T01:29:52.506Z,73331
2015-10-22T01:30:04.834Z,73324
2015-10-22T01:30:17.162Z,73326
2015-10-22T01:30:29.506Z,73332
2015-10-22T01:30:41.868Z,73326
2015-10-22T01:30:54.228Z,73330
2015-10-22T01:31:06.572Z,73327
2015-10-22T01:31:18.900Z,73334
2015-10-22T01:31:31.243Z,73329
2015-10-22T01:31:43.559Z,73329
2015-10-22T01:31:55.887Z,73333
2015-10-22T01:32:08.246Z,73325
2015-10-22T01:32:20.575Z,73324
2015-10-22T01:32:32.903Z,73329
2015-10-22T01:32:45.248Z,73324
2015-10-22T01:32:57.608Z,73327
2015-10-22T01:33:09.967Z,73328
2015-10-22T01:33:22.295Z,73324
2015-10-22T01:33:34.623Z,73331
2015-10-22T01:33:46.955Z,73326
2015-10-22T01:33:59.283Z,73325
2015-10-22T01:34:11.626Z,73324
2015-10-22T01:34:23.939Z,73330
2015-10-22T01:34:36.283Z,73322
2015-10-22T01:34:48.629Z,73329
2015-10-22T01:35:00.958Z,73328
2015-10-22T01:35:13.333Z,73328
2015-10-22T01:35:25.692Z,73322
2015-10-22T01:35:38.067Z,73322
2015-10-22T01:35:50.663Z,73323
2015-10-22T01:36:02.975Z,73326
2015-10-22T01:36:15.288Z,73324
2015-10-22T01:36:27.600Z,73325
2015-10-22T01:36:39.944Z,73324
2015-10-22T01:36:52.275Z,73328
2015-10-22T01:37:04.619Z,73324
2015-10-22T01:37:16.963Z,73322
2015-10-22T01:37:29.306Z,73324
2015-10-22T01:37:41.681Z,73321
2015-10-22T01:37:53.872Z,73320
2015-10-22T01:38:06.200Z,73323
2015-10-22T01:38:18.528Z,73314
2015-10-22T01:38:30.872Z,73323
2015-10-22T01:38:43.200Z,73322
2015-10-22T01:38:55.531Z,73321
2015-10-22T01:39:07.859Z,73317
2015-10-22T01:39:20.187Z,73329
2015-10-22T01:39:32.531Z,73312
2015-10-22T01:39:44.890Z,73313
2015-10-22T01:39:57.252Z,73323
2015-10-22T01:40:09.580Z,73322
2015-10-22T01:40:21.908Z,73317
2015-10-22T01:40:34.236Z,73314
2015-10-22T01:40:46.564Z,73318
2015-10-22T01:40:58.895Z,73315
2015-10-22T01:41:11.224Z,73313
2015-10-22T01:41:23.395Z,73320
2015-10-22T01:41:35.755Z,73316
2015-10-22T01:41:48.101Z,73321
2015-10-22T01:42:00.444Z,73316
2015-10-22T01:42:12.819Z,73321
2015-10-22T01:42:25.147Z,73320
2015-10-22T01:42:37.491Z,73314
2015-10-22T01:42:49.823Z,73325
2015-10-22T01:43:02.167Z,73319
2015-10-22T01:43:14.511Z,73319
2015-10-22T01:43:26.839Z,73325
2015-10-22T01:43:39.183Z,73322
2015-10-22T01:43:51.513Z,73321
2015-10-22T01:44:03.872Z,73320
2015-10-22T01:44:16.216Z,73319
2015-10-22T01:44:28.544Z,73317
2015-10-22T01:44:40.872Z,73324
2015-10-22T01:44:53.219Z,73319
2015-10-22T01:45:05.563Z,73317
2015-10-22T01:45:17.906Z,73319
2015-10-22T01:45:30.250Z,73324
2015-10-22T01:45:42.625Z,73319
2015-10-22T01:45:54.988Z,73322
2015-10-22T01:46:07.331Z,73321
2015-10-22T01:46:19.659Z,73313
2015-10-22T01:46:31.988Z,73318
2015-10-22T01:46:44.316Z,73315
2015-10-22T01:46:56.630Z,73318
2015-10-22T01:47:08.974Z,73321
2015-10-22T01:47:21.302Z,73317
2015-10-22T01:47:33.630Z,73315
2015-10-22T01:47:45.990Z,73310
2015-10-22T01:47:58.368Z,73311
2015-10-22T01:48:10.696Z,73320
2015-10-22T01:48:23.039Z,73319
2015-10-22T01:48:35.368Z,73318
2015-10-22T01:48:47.696Z,73323
2015-10-22T01:49:00.027Z,73306
2015-10-22T01:49:12.355Z,73318
2015-10-22T01:49:24.699Z,73321
2015-10-22T01:49:37.058Z,73315
2015-10-22T01:49:49.417Z,73312
2015-10-22T01:50:01.733Z,73315
2015-10-22T01:50:14.077Z,73311
2015-10-22T01:50:26.405Z,73312
2015-10-22T01:50:38.733Z,73313
2015-10-22T01:50:51.061Z,73313
2015-10-22T01:51:03.391Z,73313
2015-10-22T01:51:15.751Z,73314
2015-10-22T01:51:28.079Z,73319
2015-10-22T01:51:40.454Z,73320
2015-10-22T01:51:52.782Z,73309
2015-10-22T01:52:05.097Z,73315
2015-10-22T01:52:17.519Z,73319
2015-10-22T01:52:29.847Z,73315
2015-10-22T01:52:42.238Z,73311
2015-10-22T01:52:53.863Z,73312
2015-10-22T01:53:06.224Z,73310
2015-10-22T01:53:18.584Z,73316
2015-10-22T01:53:30.943Z,73317
2015-10-22T01:53:43.271Z,73314
2015-10-22T01:53:55.599Z,73309
2015-10-22T01:54:07.930Z,73305
2015-10-22T01:54:20.259Z,73315
2015-10-22T01:54:32.602Z,73314
2015-10-22T01:54:44.930Z,73316
2015-10-22T01:54:56.555Z,73313
2015-10-22T01:55:08.902Z,73304
2015-10-22T01:55:21.262Z,73321
2015-10-22T01:55:32.902Z,73313
2015-10-22T01:55:45.246Z,73313
2015-10-22T01:55:57.574Z,73311
2015-10-22T01:56:09.905Z,73313
2015-10-22T01:56:22.249Z,73315
2015-10-22T01:56:34.577Z,73309
2015-10-22T01:56:46.905Z,73312
2015-10-22T01:56:59.235Z,73310
2015-10-22T01:57:11.563Z,73316
2015-10-22T01:57:23.907Z,73312
2015-10-22T01:57:36.251Z,73302
2015-10-22T01:57:48.626Z,73308
2015-10-22T01:58:00.973Z,73311
2015-10-22T01:58:13.316Z,73301
2015-10-22T01:58:25.645Z,73311
2015-10-22T01:58:37.957Z,73308
2015-10-22T01:58:50.290Z,73305
2015-10-22T01:59:02.621Z,73306
2015-10-22T01:59:14.965Z,73314
2015-10-22T01:59:26.574Z,73308
2015-10-22T01:59:38.918Z,73311
2015-10-22T01:59:51.262Z,73304
2015-10-22T02:00:03.640Z,73309
2015-10-22T02:00:16.015Z,73300
2015-10-22T02:00:28.343Z,73300
2015-10-22T02:00:40.655Z,73304
2015-10-22T02:00:52.999Z,73304
2015-10-22T02:01:05.329Z,73304
2015-10-22T02:01:17.673Z,73303
2015-10-22T02:01:30.001Z,73307
2015-10-22T02:01:42.345Z,73305
2015-10-22T02:01:54.689Z,73307
2015-10-22T02:02:07.051Z,73306
2015-10-22T02:02:19.395Z,73310
2015-10-22T02:02:31.723Z,73301
2015-10-22T02:02:44.051Z,73304
2015-10-22T02:02:56.379Z,73299
2015-10-22T02:03:08.710Z,73305
2015-10-22T02:03:21.054Z,73311
2015-10-22T02:03:33.398Z,73296
2015-10-22T02:03:45.757Z,73301
2015-10-22T02:03:58.117Z,73305
2015-10-22T02:04:10.479Z,73298
2015-10-22T02:04:22.823Z,73303
2015-10-22T02:04:35.166Z,73300
2015-10-22T02:04:47.510Z,73302
2015-10-22T02:04:59.838Z,73304
2015-10-22T02:05:12.169Z,73297
2015-10-22T02:05:24.498Z,73301
2015-10-22T02:05:36.857Z,73304
2015-10-22T02:05:49.232Z,73311
2015-10-22T02:06:01.576Z,73298
2015-10-22T02:06:13.765Z,73303
2015-10-22T02:06:26.093Z,73305
2015-10-22T02:06:38.406Z,73300
2015-10-22T02:06:50.734Z,73306
2015-10-22T02:07:03.078Z,73303
2015-10-22T02:07:15.409Z,73302
2015-10-22T02:07:27.753Z,73300
2015-10-22T02:07:40.081Z,73302
2015-10-22T02:07:52.456Z,73301
2015-10-22T02:08:04.815Z,73295
2015-10-22T02:08:17.176Z,73299
2015-10-22T02:08:29.489Z,73304
2015-10-22T02:08:41.817Z,73299
2015-10-22T02:08:54.145Z,73306
2015-10-22T02:09:06.473Z,73302
2015-10-22T02:09:18.804Z,73298
2015-10-22T02:09:31.148Z,73307
2015-10-22T02:09:43.492Z,73299
2015-10-22T02:09:55.820Z,73298
2015-10-22T02:10:08.179Z,73309
2015-10-22T02:10:20.526Z,73298
2015-10-22T02:10:32.854Z,73300
2015-10-22T02:10:45.198Z,73306
2015-10-22T02:10:57.526Z,73293
2015-10-22T02:11:09.839Z,73300
2015-10-22T02:11:22.170Z,73301
2015-10-22T02:11:34.482Z,73304
2015-10-22T02:11:46.842Z,73297
2015-10-22T02:11:59.185Z,73299
2015-10-22T02:12:11.516Z,73299
2015-10-22T02:12:23.844Z,73303
2015-10-22T02:12:36.172Z,73300
2015-10-22T02:12:48.500Z,73296
2015-10-22T02:13:00.828Z,73303
2015-10-22T02:13:13.175Z,73304
2015-10-22T02:13:25.503Z,73302
2015-10-22T02:13:37.847Z,73303
2015-10-22T02:13:50.190Z,73302
2015-10-22T02:14:02.550Z,73299
2015-10-22T02:14:14.897Z,73298
2015-10-22T02:14:27.225Z,73302
2015-10-22T02:14:39.568Z,73303
2015-10-22T02:14:51.897Z,73304
2015-10-22T02:15:04.225Z,73307
2015-10-22T02:15:16.556Z,73299
2015-10-22T02:15:28.884Z,73301
2015-10-22T02:15:41.212Z,73299
2015-10-22T02:15:53.556Z,73303
2015-10-22T02:16:05.900Z,73302
2015-10-22T02:16:18.278Z,73299
2015-10-22T02:16:30.637Z,73301
2015-10-22T02:16:42.981Z,73305
2015-10-22T02:16:55.309Z,73297
2015-10-22T02:17:07.637Z,73306
2015-10-22T02:17:19.967Z,73304
2015-10-22T02:17:32.295Z,73306
2015-10-22T02:17:44.623Z,73305
2015-10-22T02:17:56.951Z,73300
2015-10-22T02:18:09.295Z,73300
2015-10-22T02:18:21.641Z,73303
2015-10-22T02:18:34.000Z,73302
2015-10-22T02:18:46.360Z,73301
2015-10-22T02:18:58.703Z,73303
2015-10-22T02:19:11.032Z,73301
2015-10-22T02:19:23.379Z,73301
2015-10-22T02:19:35.739Z,73300
2015-10-22T02:19:48.082Z,73298
2015-10-22T02:20:00.411Z,73301
2015-10-22T02:20:12.739Z,73303
2015-10-22T02:20:25.084Z,73304
2015-10-22T02:20:37.413Z,73300
2015-10-22T02:20:49.772Z,73298
2015-10-22T02:21:02.147Z,73303
2015-10-22T02:21:14.475Z,73299
2015-10-22T02:21:26.806Z,73298
2015-10-22T02:21:39.134Z,73304
2015-10-22T02:21:51.478Z,73306
2015-10-22T02:22:03.806Z,73310
2015-10-22T02:22:16.134Z,73310
2015-10-22T02:22:28.465Z,73309
2015-10-22T02:22:40.794Z,73303
2015-10-22T02:22:53.137Z,73303
2015-10-22T02:23:05.497Z,73299
2015-10-22T02:23:17.825Z,73302
2015-10-22T02:23:29.436Z,73295
2015-10-22T02:23:41.764Z,73303
2015-10-22T02:23:54.139Z,73301
2015-10-22T02:24:06.467Z,73295
2015-10-22T02:24:18.811Z,73300
2015-10-22T02:24:31.175Z,73305
2015-10-22T02:24:43.534Z,73309
2015-10-22T02:24:55.862Z,73300
2015-10-22T02:25:08.190Z,73298
2015-10-22T02:25:20.518Z,73305
2015-10-22T02:25:32.848Z,73296
2015-10-22T02:25:45.177Z,73302
2015-10-22T02:25:57.520Z,73294
2015-10-22T02:26:09.864Z,73294
2015-10-22T02:26:22.241Z,73301
2015-10-22T02:26:34.585Z,73294
2015-10-22T02:26:46.913Z,73300
2015-10-22T02:26:59.241Z,73306
2015-10-22T02:27:11.569Z,73302
2015-10-22T02:27:23.901Z,73304
2015-10-22T02:27:35.542Z,73309
2015-10-22T02:27:47.870Z,73300
2015-10-22T02:28:00.198Z,73293
2015-10-22T02:28:12.542Z,73302
2015-10-22T02:28:24.935Z,73302
2015-10-22T02:28:37.278Z,73296
2015-10-22T02:28:49.653Z,73303
2015-10-22T02:29:01.981Z,73301
2015-10-22T02:29:14.310Z,73298
2015-10-22T02:29:26.625Z,73302
2015-10-22T02:29:38.984Z,73302
2015-10-22T02:29:51.313Z,73297
2015-10-22T02:30:03.641Z,73295
2015-10-22T02:30:15.984Z,73297
2015-10-22T02:30:28.315Z,73300
2015-10-22T02:30:39.971Z,73299
2015-10-22T02:30:52.315Z,73299
2015-10-22T02:31:04.690Z,73302
2015-10-22T02:31:17.018Z,73301
2015-10-22T02:31:29.349Z,73297
2015-10-22T02:31:41.677Z,73304
2015-10-22T02:31:54.005Z,73298
2015-10-22T02:32:06.349Z,73300
2015-10-22T02:32:18.677Z,73300
2015-10-22T02:32:31.024Z,73294
2015-10-22T02:32:43.367Z,73295
2015-10-22T02:32:55.711Z,73296
2015-10-22T02:33:08.086Z,73299
2015-10-22T02:33:20.430Z,73306
2015-10-22T02:33:32.760Z,73302
2015-10-22T02:33:45.088Z,73297
2015-10-22T02:33:57.416Z,73302
2015-10-22T02:34:09.744Z,73300
2015-10-22T02:34:22.073Z,73302
2015-10-22T02:34:34.435Z,73304
2015-10-22T02:34:46.794Z,73299
2015-10-22T02:34:59.154Z,73304
2015-10-22T02:35:11.482Z,73302
2015-10-22T02:35:23.810Z,73306
2015-10-22T02:35:35.985Z,73300
2015-10-22T02:35:47.625Z,73303
2015-10-22T02:35:59.969Z,73300
2015-10-22T02:36:12.329Z,73301
2015-10-22T02:36:24.688Z,73303
2015-10-22T02:36:37.019Z,73296
2015-10-22T02:36:49.347Z,73299
2015-10-22T02:37:01.675Z,73304
2015-10-22T02:37:14.003Z,73295
2015-10-22T02:37:26.363Z,73299
2015-10-22T02:37:38.694Z,73298
2015-10-22T02:37:51.022Z,73308
2015-10-22T02:38:03.366Z,73300
2015-10-22T02:38:14.991Z,73297
2015-10-22T02:38:27.366Z,73300
2015-10-22T02:38:39.727Z,73292